createdAt,value
2019-03-01T00:02:04.848Z,5.23
2019-03-01T00:04:53.969Z,7.77
2019-03-01T00:07:59.214Z,5.87
2019-03-01T00:10:39.950Z,4.37
2019-03-01T00:13:23.767Z,7.90
2019-03-01T00:15:58.460Z,11.40
2019-03-01T00:18:42.490Z,5.13
2019-03-01T00:21:20.041Z,10.93
2019-03-01T00:23:51.950Z,5.00
2019-03-01T00:26:39.111Z,3.57
2019-03-01T00:29:27.861Z,7.53
2019-03-01T00:32:16.405Z,3.80
2019-03-01T00:34:56.989Z,5.00
2019-03-01T00:37:45.658Z,8.77
2019-03-01T00:40:23.433Z,6.53
2019-03-01T00:43:07.305Z,3.03
2019-03-01T00:45:36.018Z,1.90
2019-03-01T00:48:04.654Z,5.57
2019-03-01T00:50:33.381Z,11.00
2019-03-01T00:53:05.141Z,5.40
2019-03-01T00:55:33.831Z,4.80
2019-03-01T00:58:02.552Z,6.27
2019-03-01T01:00:34.360Z,18.50
2019-03-01T01:03:03.068Z,4.20
2019-03-01T01:05:31.797Z,5.30
2019-03-01T01:08:00.476Z,5.60
2019-03-01T01:10:48.536Z,18.80
2019-03-01T01:13:17.263Z,11.83
2019-03-01T01:15:45.989Z,17.20
2019-03-01T01:18:15.177Z,9.00
2019-03-01T01:20:43.860Z,6.77
2019-03-01T01:23:12.501Z,15.27
2019-03-01T01:25:41.231Z,11.10
2019-03-01T01:28:09.913Z,5.37
2019-03-01T01:30:40.213Z,4.80
2019-03-01T01:33:08.935Z,8.93
2019-03-01T01:35:37.643Z,4.77
2019-03-01T01:38:06.333Z,6.20
2019-03-01T01:40:35.061Z,7.97
2019-03-01T01:43:03.694Z,3.73
2019-03-01T01:45:32.359Z,7.67
2019-03-01T01:48:01.118Z,4.63
2019-03-01T01:50:29.796Z,15.80
2019-03-01T01:52:58.529Z,15.70
2019-03-01T01:55:46.552Z,8.30
2019-03-01T01:58:15.229Z,5.70
2019-03-01T02:00:43.895Z,11.40
2019-03-01T02:03:12.651Z,10.47
2019-03-01T02:05:41.350Z,8.03
2019-03-01T02:08:11.060Z,15.10
2019-03-01T02:10:39.775Z,13.07
2019-03-01T02:13:10.706Z,12.20
2019-03-01T02:15:39.410Z,5.20
2019-03-01T02:18:08.155Z,15.40
2019-03-01T02:20:40.152Z,11.73
2019-03-01T02:23:08.876Z,18.47
2019-03-01T02:25:37.604Z,21.37
2019-03-01T02:28:06.269Z,18.67
2019-03-01T02:30:40.115Z,7.17
2019-03-01T02:33:08.847Z,9.90
2019-03-01T02:35:37.534Z,17.83
2019-03-01T02:38:06.600Z,23.50
2019-03-01T02:40:37.366Z,18.67
2019-03-01T02:43:06.143Z,22.80
2019-03-01T02:45:34.853Z,16.70
2019-03-01T02:48:03.598Z,35.53
2019-03-01T02:50:35.300Z,14.03
2019-03-01T02:53:04.086Z,16.40
2019-03-01T02:55:32.837Z,24.10
2019-03-01T02:58:03.128Z,23.37
2019-03-01T03:00:32.303Z,16.33
2019-03-01T03:03:01.046Z,16.27
2019-03-01T03:05:34.062Z,13.17
2019-03-01T03:08:04.408Z,14.40
2019-03-01T03:10:33.087Z,16.97
2019-03-01T03:13:04.485Z,16.87
2019-03-01T03:15:34.832Z,21.57
2019-03-01T03:18:03.549Z,11.50
2019-03-01T03:20:32.242Z,13.03
2019-03-01T03:23:01.801Z,20.33
2019-03-01T03:25:30.473Z,11.10
2019-03-01T03:27:59.146Z,13.20
2019-03-01T03:30:27.887Z,16.50
2019-03-01T03:32:56.616Z,11.43
2019-03-01T03:35:25.307Z,22.60
2019-03-01T03:37:54.028Z,27.97
2019-03-01T03:40:24.282Z,34.60
2019-03-01T03:42:52.983Z,15.43
2019-03-01T03:45:24.938Z,24.23
2019-03-01T03:47:53.645Z,33.13
2019-03-01T03:50:22.336Z,12.97
2019-03-01T03:52:51.025Z,26.33
2019-03-01T03:55:19.694Z,15.53
2019-03-01T03:57:48.421Z,24.83
2019-03-01T04:00:24.576Z,9.57
2019-03-01T04:02:53.270Z,16.63
2019-03-01T04:05:21.918Z,13.83
2019-03-01T04:07:50.641Z,17.13
2019-03-01T04:10:19.325Z,11.63
2019-03-01T04:12:48.049Z,13.27
2019-03-01T04:15:17.616Z,19.13
2019-03-01T04:17:46.305Z,22.10
2019-03-01T04:20:18.859Z,18.43
2019-03-01T04:22:47.542Z,15.43
2019-03-01T04:25:16.212Z,8.20
2019-03-01T04:27:44.891Z,12.10
2019-03-01T04:30:18.358Z,13.30
2019-03-01T04:32:47.045Z,8.40
2019-03-01T04:35:15.799Z,11.03
2019-03-01T04:37:44.487Z,11.73
2019-03-01T04:40:14.584Z,2.07
2019-03-01T04:42:46.456Z,1.80
2019-03-01T04:45:16.775Z,13.23
2019-03-01T04:47:45.495Z,11.37
2019-03-01T04:50:14.236Z,7.43
2019-03-01T04:52:42.931Z,14.93
2019-03-01T04:55:16.715Z,15.40
2019-03-01T04:57:45.701Z,11.23
2019-03-01T05:00:22.721Z,14.67
2019-03-01T05:02:51.475Z,10.80
2019-03-01T05:05:20.159Z,13.10
2019-03-01T05:07:48.961Z,15.13
2019-03-01T05:10:17.684Z,19.73
2019-03-01T05:12:46.367Z,20.63
2019-03-01T05:15:21.646Z,11.23
2019-03-01T05:17:50.311Z,38.40
2019-03-01T05:20:19.037Z,21.17
2019-03-01T05:22:47.750Z,12.03
2019-03-01T05:25:16.488Z,13.27
2019-03-01T05:27:45.218Z,11.90
2019-03-01T05:30:21.483Z,14.80
2019-03-01T05:32:53.223Z,23.27
2019-03-01T05:35:21.878Z,25.30
2019-03-01T05:37:50.672Z,23.57
2019-03-01T05:40:19.361Z,31.03
2019-03-01T05:42:48.017Z,32.23
2019-03-01T05:45:25.702Z,13.33
2019-03-01T05:47:54.382Z,22.17
2019-03-01T05:50:27.789Z,24.33
2019-03-01T05:52:56.204Z,30.00
2019-03-01T05:55:24.896Z,24.50
2019-03-01T05:58:22.657Z,16.87
2019-03-01T06:00:52.428Z,34.47
2019-03-01T06:03:40.803Z,32.23
2019-03-01T06:06:15.373Z,21.17
2019-03-01T06:08:59.165Z,24.30
2019-03-01T06:11:33.680Z,23.93
2019-03-01T06:14:07.411Z,27.33
2019-03-01T06:16:54.417Z,27.47
2019-03-01T06:19:53.846Z,14.67
2019-03-01T06:22:42.935Z,10.80
2019-03-01T06:25:31.829Z,15.67
2019-03-01T06:28:06.398Z,20.57
2019-03-01T06:30:56.386Z,25.83
2019-03-01T06:33:46.225Z,19.03
2019-03-01T06:36:43.344Z,17.83
2019-03-01T06:39:19.766Z,10.27
2019-03-01T06:41:57.469Z,10.50
2019-03-01T06:44:44.578Z,10.57
2019-03-01T06:47:23.309Z,13.87
2019-03-01T06:49:53.899Z,15.03
2019-03-01T06:52:25.078Z,19.73
2019-03-01T06:54:53.900Z,9.67
2019-03-01T06:57:22.622Z,10.30
2019-03-01T06:59:51.499Z,10.57
2019-03-01T07:05:02.522Z,9.70
2019-03-01T07:07:31.381Z,9.80
2019-03-01T07:10:00.237Z,6.03
2019-03-01T07:12:29.454Z,9.73
2019-03-01T07:15:01.430Z,14.30
2019-03-01T07:17:30.233Z,6.07
2019-03-01T07:19:58.929Z,8.50
2019-03-01T07:22:27.880Z,9.90
2019-03-01T07:24:56.817Z,10.13
2019-03-01T07:27:26.010Z,17.83
2019-03-01T07:29:58.133Z,14.10
2019-03-01T07:32:26.945Z,10.80
2019-03-01T07:34:55.810Z,12.40
2019-03-01T07:37:32.320Z,9.33
2019-03-01T07:40:01.388Z,13.77
2019-03-01T07:42:30.115Z,13.63
2019-03-01T07:44:59.363Z,13.50
2019-03-01T07:47:28.072Z,17.00
2019-03-01T07:49:57.041Z,13.30
2019-03-01T07:52:25.831Z,14.53
2019-03-01T07:54:54.483Z,12.07
2019-03-01T07:57:23.176Z,14.53
2019-03-01T07:59:51.905Z,12.57
2019-03-01T08:02:20.558Z,13.33
2019-03-01T08:04:50.193Z,10.40
2019-03-01T08:07:20.484Z,10.23
2019-03-01T08:09:49.347Z,8.23
2019-03-01T08:12:18.026Z,10.70
2019-03-01T08:14:46.719Z,12.13
2019-03-01T08:17:18.432Z,10.60
2019-03-01T08:19:47.121Z,8.27
2019-03-01T08:22:15.889Z,13.17
2019-03-01T08:24:46.541Z,23.90
2019-03-01T08:27:14.903Z,21.13
2019-03-01T08:29:43.638Z,17.17
2019-03-01T08:32:12.279Z,15.90
2019-03-01T08:34:40.949Z,10.03
2019-03-01T08:37:09.672Z,15.90
2019-03-01T08:39:39.792Z,16.57
2019-03-01T08:42:08.721Z,27.03
2019-03-01T08:44:37.456Z,16.07
2019-03-01T08:47:06.157Z,19.07
2019-03-01T08:49:34.826Z,16.20
2019-03-01T08:52:03.565Z,17.63
2019-03-01T08:54:32.222Z,15.20
2019-03-01T08:57:00.951Z,18.17
2019-03-01T08:59:31.230Z,26.87
2019-03-01T09:02:01.940Z,17.10
2019-03-01T09:04:37.529Z,21.70
2019-03-01T09:07:01.671Z,14.47
2019-03-01T09:09:30.529Z,24.30
2019-03-01T09:11:59.408Z,30.73
2019-03-01T09:14:28.146Z,27.57
2019-03-01T09:16:56.839Z,16.30
2019-03-01T09:19:26.230Z,23.67
2019-03-01T09:21:55.116Z,24.03
2019-03-01T09:24:25.800Z,19.40
2019-03-01T09:26:55.138Z,23.27
2019-03-01T09:29:24.517Z,17.40
2019-03-01T09:31:54.247Z,14.43
2019-03-01T09:34:23.517Z,31.57
2019-03-01T09:36:54.899Z,18.33
2019-03-01T09:39:25.092Z,16.83
2019-03-01T09:42:02.697Z,27.00
2019-03-01T09:44:43.522Z,18.00
2019-03-01T09:47:14.282Z,30.67
2019-03-01T09:49:42.976Z,21.23
2019-03-01T09:52:11.708Z,25.67
2019-03-01T09:54:40.402Z,22.27
2019-03-01T09:57:09.114Z,16.50
2019-03-01T09:59:37.800Z,16.40
2019-03-01T10:02:06.519Z,20.93
2019-03-01T10:04:35.152Z,20.50
2019-03-01T10:07:03.920Z,21.80
2019-03-01T10:09:32.622Z,18.63
2019-03-01T10:12:01.317Z,31.93
2019-03-01T10:14:30.046Z,23.63
2019-03-01T10:16:58.727Z,18.13
2019-03-01T10:19:27.417Z,21.60
2019-03-01T10:21:56.154Z,19.03
2019-03-01T10:24:26.395Z,20.77
2019-03-01T10:26:55.109Z,22.93
2019-03-01T10:29:23.831Z,20.47
2019-03-01T10:31:53.545Z,18.17
2019-03-01T10:34:22.238Z,16.93
2019-03-01T10:36:50.956Z,18.40
2019-03-01T10:39:19.641Z,16.03
2019-03-01T10:41:48.759Z,28.63
2019-03-01T10:44:17.554Z,21.90
2019-03-01T10:46:49.169Z,24.37
2019-03-01T10:49:18.683Z,23.77
2019-03-01T10:51:47.413Z,20.60
2019-03-01T10:54:16.094Z,18.13
2019-03-01T10:56:44.768Z,20.63
2019-03-01T10:59:13.476Z,28.70
2019-03-01T11:01:42.177Z,22.23
2019-03-01T11:04:10.856Z,19.50
2019-03-01T11:06:39.595Z,13.73
2019-03-01T11:09:08.710Z,15.77
2019-03-01T11:11:37.384Z,36.80
2019-03-01T11:14:10.730Z,20.63
2019-03-01T11:16:41.012Z,23.70
2019-03-01T11:19:09.664Z,21.77
2019-03-01T11:21:38.394Z,19.90
2019-03-01T11:24:07.080Z,19.87
2019-03-01T11:26:35.785Z,16.00
2019-03-01T11:29:04.529Z,22.30
2019-03-01T11:31:36.398Z,22.00
2019-03-01T11:34:05.113Z,22.17
2019-03-01T11:36:33.854Z,26.50
2019-03-01T11:39:02.637Z,17.30
2019-03-01T11:41:31.317Z,11.30
2019-03-01T11:44:00.050Z,17.17
2019-03-01T11:46:28.725Z,19.43
2019-03-01T11:48:57.404Z,19.83
2019-03-01T11:51:27.781Z,16.47
2019-03-01T11:53:56.549Z,19.33
2019-03-01T11:56:25.269Z,17.40
2019-03-01T11:58:53.966Z,16.10
2019-03-01T12:01:22.692Z,12.77
2019-03-01T12:03:51.390Z,15.13
2019-03-01T12:06:20.113Z,14.47
2019-03-01T12:08:48.798Z,13.53
2019-03-01T12:11:17.487Z,15.47
2019-03-01T12:13:46.206Z,17.53
2019-03-01T12:16:14.902Z,19.07
2019-03-01T12:18:43.584Z,17.20
2019-03-01T12:21:12.320Z,17.57
2019-03-01T12:23:41.021Z,19.03
2019-03-01T12:26:09.661Z,12.60
2019-03-01T12:28:38.405Z,15.40
2019-03-01T12:31:07.084Z,13.50
2019-03-01T12:33:35.779Z,16.57
2019-03-01T12:36:04.550Z,17.13
2019-03-01T12:38:33.252Z,19.50
2019-03-01T12:41:02.974Z,17.03
2019-03-01T12:43:31.716Z,11.27
2019-03-01T12:46:00.398Z,17.07
2019-03-01T12:48:33.153Z,15.37
2019-03-01T12:50:59.416Z,18.07
2019-03-01T12:53:28.113Z,21.93
2019-03-01T12:55:58.400Z,23.33
2019-03-01T12:58:27.136Z,22.90
2019-03-01T13:00:55.823Z,17.47
2019-03-01T13:03:25.344Z,24.43
2019-03-01T13:05:54.048Z,29.07
2019-03-01T13:08:24.337Z,22.53
2019-03-01T13:10:53.051Z,25.37
2019-03-01T13:13:21.800Z,20.87
2019-03-01T13:15:52.265Z,20.40
2019-03-01T13:18:22.403Z,22.87
2019-03-01T13:20:51.131Z,18.73
2019-03-01T13:23:19.823Z,19.10
2019-03-01T13:25:48.510Z,17.20
2019-03-01T13:28:17.253Z,21.83
2019-03-01T13:30:45.915Z,22.80
2019-03-01T13:33:14.597Z,24.63
2019-03-01T13:35:43.323Z,21.77
2019-03-01T13:38:12.009Z,21.33
2019-03-01T13:40:40.746Z,14.97
2019-03-01T13:43:09.522Z,21.97
2019-03-01T13:45:38.217Z,20.53
2019-03-01T13:48:06.909Z,21.67
2019-03-01T13:50:38.352Z,17.50
2019-03-01T13:53:06.664Z,18.27
2019-03-01T13:55:35.414Z,21.60
2019-03-01T13:58:04.169Z,21.80
2019-03-01T14:00:34.402Z,13.50
2019-03-01T14:03:03.090Z,19.83
2019-03-01T14:05:31.855Z,25.17
2019-03-01T14:08:08.626Z,22.10
2019-03-01T14:10:30.884Z,26.50
2019-03-01T14:12:59.601Z,25.37
2019-03-01T14:15:29.840Z,19.03
2019-03-01T14:18:01.175Z,20.50
2019-03-01T14:20:31.434Z,23.37
2019-03-01T14:23:00.102Z,23.03
2019-03-01T14:25:28.791Z,25.50
2019-03-01T14:27:57.546Z,26.43
2019-03-01T14:30:30.236Z,17.53
2019-03-01T14:32:59.063Z,24.93
2019-03-01T14:35:27.763Z,19.83
2019-03-01T14:37:56.471Z,23.50
2019-03-01T14:40:26.683Z,20.53
2019-03-01T14:42:55.676Z,36.33
2019-03-01T14:45:34.830Z,22.37
2019-03-01T14:48:04.964Z,24.57
2019-03-01T14:50:34.766Z,22.73
2019-03-01T14:53:03.610Z,20.63
2019-03-01T14:55:44.401Z,22.20
2019-03-01T14:58:31.176Z,30.03
2019-03-01T15:01:08.755Z,30.67
2019-03-01T15:03:38.548Z,23.13
2019-03-01T15:06:07.681Z,26.80
2019-03-01T15:08:40.444Z,21.43
2019-03-01T15:11:10.336Z,23.90
2019-03-01T15:13:39.132Z,20.10
2019-03-01T15:16:08.218Z,17.33
2019-03-01T15:18:39.981Z,28.03
2019-03-01T15:21:12.559Z,22.23
2019-03-01T15:23:41.227Z,28.07
2019-03-01T15:26:09.926Z,23.50
2019-03-01T15:28:53.673Z,18.00
2019-03-01T15:31:20.174Z,25.60
2019-03-01T15:33:50.539Z,23.47
2019-03-01T15:36:19.339Z,26.90
2019-03-01T15:38:48.053Z,27.97
2019-03-01T15:41:18.301Z,26.23
2019-03-01T15:43:50.150Z,31.27
2019-03-01T15:46:20.684Z,28.70
2019-03-01T15:48:49.197Z,20.27
2019-03-01T15:51:18.770Z,37.37
2019-03-01T15:53:47.444Z,31.50
2019-03-01T15:56:16.145Z,36.60
2019-03-01T15:58:46.412Z,32.20
2019-03-01T16:01:15.209Z,25.83
2019-03-01T16:03:43.886Z,30.73
2019-03-01T16:06:17.292Z,31.13
2019-03-01T16:08:43.878Z,36.40
2019-03-01T16:11:13.665Z,35.77
2019-03-01T16:13:47.902Z,30.40
2019-03-01T16:16:14.579Z,45.47
2019-03-01T16:18:43.303Z,37.77
2019-03-01T16:21:13.606Z,29.70
2019-03-01T16:23:43.870Z,23.73
2019-03-01T16:26:13.043Z,39.77
2019-03-01T16:28:41.773Z,46.23
2019-03-01T16:31:10.501Z,38.00
2019-03-01T16:33:39.177Z,42.70
2019-03-01T16:36:09.476Z,52.10
2019-03-01T16:38:40.869Z,41.73
2019-03-01T16:41:08.584Z,46.50
2019-03-01T16:43:37.747Z,40.30
2019-03-01T16:46:06.432Z,45.97
2019-03-01T16:48:36.939Z,44.40
2019-03-01T16:51:05.674Z,46.83
2019-03-01T16:53:36.692Z,43.97
2019-03-01T16:56:04.711Z,47.70
2019-03-01T16:58:33.453Z,58.20
2019-03-01T17:01:02.157Z,50.47
2019-03-01T17:03:31.285Z,35.77
2019-03-01T17:06:00.017Z,49.33
2019-03-01T17:08:28.687Z,38.43
2019-03-01T17:10:57.573Z,39.03
2019-03-01T17:13:28.114Z,42.10
2019-03-01T17:15:56.950Z,53.10
2019-03-01T17:18:25.648Z,45.03
2019-03-01T17:20:54.379Z,43.47
2019-03-01T17:23:23.024Z,43.03
2019-03-01T17:25:51.720Z,54.10
2019-03-01T17:28:23.537Z,45.57
2019-03-01T17:30:51.764Z,53.17
2019-03-01T17:33:20.537Z,48.93
2019-03-01T17:35:49.264Z,48.40
2019-03-01T17:38:17.941Z,47.73
2019-03-01T17:40:49.305Z,42.03
2019-03-01T17:43:18.406Z,49.87
2019-03-01T17:45:47.050Z,41.47
2019-03-01T17:48:18.436Z,44.60
2019-03-01T17:50:46.189Z,58.97
2019-03-01T17:53:16.463Z,49.27
2019-03-01T17:55:45.112Z,39.87
2019-03-01T17:58:13.860Z,43.70
2019-03-01T18:00:47.669Z,42.27
2019-03-01T18:03:18.832Z,35.73
2019-03-01T18:05:49.649Z,46.57
2019-03-01T18:08:17.915Z,26.60
2019-03-01T18:10:46.564Z,38.93
2019-03-01T18:13:15.345Z,30.53
2019-03-01T18:15:45.134Z,34.40
2019-03-01T18:18:14.432Z,37.87
2019-03-01T18:20:43.160Z,31.67
2019-03-01T18:23:11.881Z,22.07
2019-03-01T18:25:40.571Z,31.20
2019-03-01T18:28:09.311Z,25.57
2019-03-01T18:30:38.044Z,27.20
2019-03-01T18:33:08.313Z,28.17
2019-03-01T18:35:37.064Z,34.30
2019-03-01T18:38:05.754Z,31.53
2019-03-01T18:40:36.429Z,17.73
2019-03-01T18:43:04.827Z,26.43
2019-03-01T18:45:38.443Z,32.80
2019-03-01T18:48:05.061Z,24.93
2019-03-01T18:50:39.334Z,21.33
2019-03-01T18:53:08.243Z,29.53
2019-03-01T18:55:36.919Z,41.53
2019-03-01T18:58:05.885Z,21.97
2019-03-01T19:00:42.623Z,24.13
2019-03-01T19:03:11.346Z,41.97
2019-03-01T19:05:41.283Z,21.23
2019-03-01T19:08:10.188Z,31.87
2019-03-01T19:10:41.046Z,23.83
2019-03-01T19:13:10.101Z,30.73
2019-03-01T19:15:41.199Z,39.80
2019-03-01T19:18:09.968Z,32.57
2019-03-01T19:20:42.471Z,29.67
2019-03-01T19:23:11.366Z,29.73
2019-03-01T19:25:41.922Z,25.97
2019-03-01T19:28:12.015Z,23.03
2019-03-01T19:30:42.249Z,27.00
2019-03-01T19:33:30.369Z,26.20
2019-03-01T19:36:03.264Z,13.43
2019-03-01T19:38:32.335Z,20.00
2019-03-01T19:41:01.099Z,28.20
2019-03-01T19:43:29.981Z,22.83
2019-03-01T19:46:01.638Z,26.63
2019-03-01T19:48:30.388Z,21.60
2019-03-01T19:51:01.916Z,31.97
2019-03-01T19:53:29.816Z,28.67
2019-03-01T19:56:02.002Z,31.53
2019-03-01T19:58:30.921Z,30.47
2019-03-01T20:01:01.360Z,35.83
2019-03-01T20:03:30.102Z,33.00
2019-03-01T20:06:04.477Z,19.30
2019-03-01T20:08:39.299Z,38.40
2019-03-01T20:11:08.022Z,33.67
2019-03-01T20:13:38.655Z,36.53
2019-03-01T20:16:08.677Z,17.47
2019-03-01T20:18:41.740Z,27.00
2019-03-01T20:21:12.292Z,21.53
2019-03-01T20:23:41.015Z,16.50
2019-03-01T20:26:09.753Z,19.87
2019-03-01T20:28:38.536Z,29.03
2019-03-01T20:31:08.615Z,18.27
2019-03-01T20:33:37.345Z,18.13
2019-03-01T20:36:06.052Z,16.47
2019-03-01T20:38:37.002Z,21.33
2019-03-01T20:41:05.349Z,22.07
2019-03-01T20:43:37.908Z,17.87
2019-03-01T20:46:07.194Z,32.57
2019-03-01T20:48:36.353Z,34.13
2019-03-01T20:51:07.110Z,21.80
2019-03-01T20:53:35.828Z,20.57
2019-03-01T20:56:04.551Z,22.20
2019-03-01T20:58:35.895Z,19.93
2019-03-01T21:01:03.851Z,20.80
2019-03-01T21:03:32.531Z,42.17
2019-03-01T21:06:01.689Z,21.30
2019-03-01T21:08:31.631Z,41.77
2019-03-01T21:11:00.704Z,24.07
2019-03-01T21:13:29.414Z,26.90
2019-03-01T21:15:58.593Z,22.17
2019-03-01T21:18:27.282Z,21.03
2019-03-01T21:20:55.951Z,21.83
2019-03-01T21:23:26.589Z,29.30
2019-03-01T21:25:55.496Z,21.87
2019-03-01T21:28:24.181Z,45.57
2019-03-01T21:30:55.706Z,21.67
2019-03-01T21:33:27.426Z,40.60
2019-03-01T21:35:55.205Z,28.03
2019-03-01T21:38:23.957Z,36.97
2019-03-01T21:40:54.721Z,24.10
2019-03-01T21:43:42.441Z,30.73
2019-03-01T21:46:11.297Z,29.27
2019-03-01T21:48:40.504Z,34.07
2019-03-01T21:51:09.455Z,20.90
2019-03-01T21:53:39.877Z,21.03
2019-03-01T21:56:08.806Z,27.87
2019-03-01T21:58:41.944Z,41.90
2019-03-01T22:01:09.645Z,38.13
2019-03-01T22:03:41.586Z,42.50
2019-03-01T22:06:10.409Z,34.53
2019-03-01T22:08:40.190Z,31.50
2019-03-01T22:11:13.328Z,29.20
2019-03-01T22:13:43.648Z,41.03
2019-03-01T22:16:16.673Z,22.17
2019-03-01T22:18:45.441Z,24.07
2019-03-01T22:21:22.637Z,30.30
2019-03-01T22:23:47.601Z,36.03
2019-03-01T22:26:17.931Z,25.50
2019-03-01T22:28:48.879Z,26.10
2019-03-01T22:31:17.868Z,38.40
2019-03-01T22:33:52.649Z,40.43
2019-03-01T22:36:18.234Z,36.50
2019-03-01T22:38:47.390Z,59.73
2019-03-01T22:41:17.772Z,32.73
2019-03-01T22:43:47.674Z,37.83
2019-03-01T22:46:16.445Z,36.10
2019-03-01T22:48:48.937Z,26.40
2019-03-01T22:51:17.958Z,32.00
2019-03-01T22:53:46.064Z,30.67
2019-03-01T22:56:14.873Z,17.33
2019-03-01T22:58:43.558Z,20.93
2019-03-01T23:01:15.858Z,33.93
2019-03-01T23:03:43.158Z,37.40
2019-03-01T23:06:14.702Z,35.47
2019-03-01T23:08:42.569Z,45.00
2019-03-01T23:11:11.383Z,39.30
2019-03-01T23:13:40.094Z,31.00
2019-03-01T23:16:08.781Z,24.57
2019-03-01T23:18:37.612Z,32.63
2019-03-01T23:21:07.868Z,46.57
2019-03-01T23:23:36.562Z,35.13
2019-03-01T23:26:08.433Z,51.87
2019-03-01T23:28:37.123Z,66.50
2019-03-01T23:31:07.469Z,74.77
2019-03-01T23:33:41.950Z,76.30
2019-03-01T23:36:10.634Z,74.57
2019-03-01T23:38:39.306Z,78.90
2019-03-01T23:41:11.331Z,89.23
2019-03-01T23:43:39.927Z,84.93
2019-03-01T23:46:08.635Z,83.00
2019-03-01T23:48:37.377Z,68.57
2019-03-01T23:51:06.751Z,41.03
2019-03-01T23:53:36.423Z,49.47
2019-03-01T23:56:05.165Z,38.23
2019-03-01T23:58:33.861Z,41.33
